sensor_id;sensor_type;location;lat;lon;timestamp;pressure;altitude;pressure_sealevel;temperature;humidity
42591;BME280;28218;53.342;-6.216;2023-02-19T00:01:51;102458.25;;;10.66;100.00
42591;BME280;28218;53.342;-6.216;2023-02-19T00:04:20;102459.22;;;10.65;100.00
42591;BME280;28218;53.342;-6.216;2023-02-19T00:06:49;102456.59;;;10.65;100.00
42591;BME280;28218;53.342;-6.216;2023-02-19T00:09:18;102458.03;;;10.69;100.00
42591;BME280;28218;53.342;-6.216;2023-02-19T00:11:47;102459.31;;;10.74;100.00
42591;BME280;28218;53.342;-6.216;2023-02-19T00:14:17;102469.25;;;10.71;100.00
42591;BME280;28218;53.342;-6.216;2023-02-19T00:16:47;102471.06;;;10.70;100.00
42591;BME280;28218;53.342;-6.216;2023-02-19T00:19:17;102463.03;;;10.72;100.00
42591;BME280;28218;53.342;-6.216;2023-02-19T00:21:45;102455.84;;;10.74;100.00
42591;BME280;28218;53.342;-6.216;2023-02-19T00:24:14;102473.56;;;10.72;100.00
42591;BME280;28218;53.342;-6.216;2023-02-19T00:26:43;102464.81;;;10.71;100.00
42591;BME280;28218;53.342;-6.216;2023-02-19T00:29:13;102469.41;;;10.69;100.00
42591;BME280;28218;53.342;-6.216;2023-02-19T00:31:42;102453.50;;;10.60;100.00
42591;BME280;28218;53.342;-6.216;2023-02-19T00:34:13;102466.69;;;10.60;100.00
42591;BME280;28218;53.342;-6.216;2023-02-19T00:36:42;102475.66;;;10.57;100.00
42591;BME280;28218;53.342;-6.216;2023-02-19T00:39:13;102483.94;;;10.53;100.00
42591;BME280;28218;53.342;-6.216;2023-02-19T00:41:41;102468.28;;;10.51;100.00
42591;BME280;28218;53.342;-6.216;2023-02-19T00:44:11;102484.78;;;10.53;100.00
42591;BME280;28218;53.342;-6.216;2023-02-19T00:46:41;102488.16;;;10.55;100.00
42591;BME280;28218;53.342;-6.216;2023-02-19T00:49:15;102489.81;;;10.56;100.00
42591;BME280;28218;53.342;-6.216;2023-02-19T00:51:43;102504.19;;;10.52;100.00
42591;BME280;28218;53.342;-6.216;2023-02-19T00:54:12;102510.06;;;10.56;100.00
42591;BME280;28218;53.342;-6.216;2023-02-19T00:56:41;102521.06;;;10.61;100.00
42591;BME280;28218;53.342;-6.216;2023-02-19T00:59:09;102520.84;;;10.64;100.00
42591;BME280;28218;53.342;-6.216;2023-02-19T01:01:38;102513.88;;;10.63;100.00
42591;BME280;28218;53.342;-6.216;2023-02-19T01:04:06;102519.28;;;10.61;100.00
42591;BME280;28218;53.342;-6.216;2023-02-19T01:06:36;102512.94;;;10.64;100.00
42591;BME280;28218;53.342;-6.216;2023-02-19T01:09:04;102511.97;;;10.65;100.00
42591;BME280;28218;53.342;-6.216;2023-02-19T01:11:34;102512.66;;;10.67;100.00
42591;BME280;28218;53.342;-6.216;2023-02-19T01:14:02;102511.81;;;10.66;100.00
42591;BME280;28218;53.342;-6.216;2023-02-19T01:16:31;102516.63;;;10.61;100.00
42591;BME280;28218;53.342;-6.216;2023-02-19T01:18:59;102517.75;;;10.59;100.00
42591;BME280;28218;53.342;-6.216;2023-02-19T01:21:29;102516.88;;;10.58;100.00
42591;BME280;28218;53.342;-6.216;2023-02-19T01:23:59;102523.13;;;10.57;100.00
42591;BME280;28218;53.342;-6.216;2023-02-19T01:26:28;102523.94;;;10.58;100.00
42591;BME280;28218;53.342;-6.216;2023-02-19T01:28:57;102518.69;;;10.58;100.00
42591;BME280;28218;53.342;-6.216;2023-02-19T01:31:26;102503.81;;;10.57;100.00
42591;BME280;28218;53.342;-6.216;2023-02-19T01:33:56;102515.34;;;10.56;100.00
42591;BME280;28218;53.342;-6.216;2023-02-19T01:36:25;102507.28;;;10.57;100.00
42591;BME280;28218;53.342;-6.216;2023-02-19T01:38:53;102527.41;;;10.58;100.00
42591;BME280;28218;53.342;-6.216;2023-02-19T01:41:24;102516.16;;;10.56;100.00
42591;BME280;28218;53.342;-6.216;2023-02-19T01:43:56;102518.94;;;10.55;100.00
42591;BME280;28218;53.342;-6.216;2023-02-19T01:46:26;102526.13;;;10.53;100.00
42591;BME280;28218;53.342;-6.216;2023-02-19T01:48:56;102519.41;;;10.48;100.00
42591;BME280;28218;53.342;-6.216;2023-02-19T01:51:25;102526.03;;;10.43;100.00
42591;BME280;28218;53.342;-6.216;2023-02-19T01:53:56;102519.44;;;10.37;100.00
42591;BME280;28218;53.342;-6.216;2023-02-19T01:56:27;102517.53;;;10.39;100.00
42591;BME280;28218;53.342;-6.216;2023-02-19T01:58:57;102514.88;;;10.39;100.00
42591;BME280;28218;53.342;-6.216;2023-02-19T02:01:27;102502.69;;;10.38;100.00
42591;BME280;28218;53.342;-6.216;2023-02-19T02:03:55;102499.34;;;10.36;100.00
42591;BME280;28218;53.342;-6.216;2023-02-19T02:06:27;102513.13;;;10.40;100.00
42591;BME280;28218;53.342;-6.216;2023-02-19T02:08:57;102504.97;;;10.32;100.00
42591;BME280;28218;53.342;-6.216;2023-02-19T02:11:46;102511.78;;;10.34;100.00
42591;BME280;28218;53.342;-6.216;2023-02-19T02:14:16;102522.59;;;10.31;100.00
42591;BME280;28218;53.342;-6.216;2023-02-19T02:16:54;102528.22;;;10.27;100.00
42591;BME280;28218;53.342;-6.216;2023-02-19T02:22:25;102523.53;;;10.30;100.00
42591;BME280;28218;53.342;-6.216;2023-02-19T02:28:05;102526.66;;;10.24;100.00
42591;BME280;28218;53.342;-6.216;2023-02-19T02:30:42;102544.13;;;10.25;100.00
42591;BME280;28218;53.342;-6.216;2023-02-19T02:33:18;102553.72;;;10.26;100.00
42591;BME280;28218;53.342;-6.216;2023-02-19T02:35:51;102560.16;;;10.22;100.00
42591;BME280;28218;53.342;-6.216;2023-02-19T02:38:22;102559.44;;;10.20;100.00
42591;BME280;28218;53.342;-6.216;2023-02-19T02:40:53;102549.84;;;10.19;100.00
42591;BME280;28218;53.342;-6.216;2023-02-19T02:43:22;102546.38;;;10.18;100.00
42591;BME280;28218;53.342;-6.216;2023-02-19T02:45:51;102552.72;;;10.16;100.00
42591;BME280;28218;53.342;-6.216;2023-02-19T02:48:33;102545.91;;;10.13;100.00
42591;BME280;28218;53.342;-6.216;2023-02-19T02:51:08;102540.53;;;10.04;100.00
42591;BME280;28218;53.342;-6.216;2023-02-19T02:53:40;102558.50;;;9.98;100.00
42591;BME280;28218;53.342;-6.216;2023-02-19T02:56:29;102549.03;;;9.96;100.00
42591;BME280;28218;53.342;-6.216;2023-02-19T02:59:00;102562.19;;;9.96;100.00
42591;BME280;28218;53.342;-6.216;2023-02-19T03:01:34;102559.44;;;9.86;100.00
42591;BME280;28218;53.342;-6.216;2023-02-19T03:04:24;102563.63;;;9.89;100.00
42591;BME280;28218;53.342;-6.216;2023-02-19T03:06:59;102581.22;;;9.88;100.00
42591;BME280;28218;53.342;-6.216;2023-02-19T03:09:35;102575.22;;;9.86;100.00
42591;BME280;28218;53.342;-6.216;2023-02-19T03:12:09;102583.97;;;9.87;100.00
42591;BME280;28218;53.342;-6.216;2023-02-19T03:15:01;102585.63;;;9.88;100.00
42591;BME280;28218;53.342;-6.216;2023-02-19T03:17:52;102581.47;;;9.85;100.00
42591;BME280;28218;53.342;-6.216;2023-02-19T03:20:40;102593.66;;;9.86;100.00
42591;BME280;28218;53.342;-6.216;2023-02-19T03:23:12;102598.94;;;9.86;100.00
42591;BME280;28218;53.342;-6.216;2023-02-19T03:25:41;102593.78;;;9.85;100.00
42591;BME280;28218;53.342;-6.216;2023-02-19T03:28:32;102590.41;;;9.83;100.00
42591;BME280;28218;53.342;-6.216;2023-02-19T03:31:20;102589.84;;;9.79;100.00
42591;BME280;28218;53.342;-6.216;2023-02-19T03:33:53;102597.81;;;9.78;100.00
42591;BME280;28218;53.342;-6.216;2023-02-19T03:36:26;102586.72;;;9.74;100.00
42591;BME280;28218;53.342;-6.216;2023-02-19T03:38:59;102593.88;;;9.72;100.00
42591;BME280;28218;53.342;-6.216;2023-02-19T03:41:35;102590.75;;;9.67;100.00
42591;BME280;28218;53.342;-6.216;2023-02-19T03:44:11;102584.88;;;9.63;100.00
42591;BME280;28218;53.342;-6.216;2023-02-19T03:46:45;102582.16;;;9.65;100.00
42591;BME280;28218;53.342;-6.216;2023-02-19T03:49:23;102588.34;;;9.64;100.00
42591;BME280;28218;53.342;-6.216;2023-02-19T03:51:59;102592.91;;;9.62;100.00
42591;BME280;28218;53.342;-6.216;2023-02-19T03:54:34;102588.59;;;9.61;100.00
42591;BME280;28218;53.342;-6.216;2023-02-19T03:57:10;102589.56;;;9.60;100.00
42591;BME280;28218;53.342;-6.216;2023-02-19T03:59:43;102582.59;;;9.59;100.00
42591;BME280;28218;53.342;-6.216;2023-02-19T04:02:17;102588.00;;;9.57;100.00
42591;BME280;28218;53.342;-6.216;2023-02-19T04:04:50;102584.53;;;9.57;100.00
42591;BME280;28218;53.342;-6.216;2023-02-19T04:07:21;102602.19;;;9.55;100.00
42591;BME280;28218;53.342;-6.216;2023-02-19T04:09:51;102603.78;;;9.57;100.00
42591;BME280;28218;53.342;-6.216;2023-02-19T04:12:20;102616.94;;;9.57;100.00
42591;BME280;28218;53.342;-6.216;2023-02-19T04:14:51;102608.91;;;9.59;100.00
42591;BME280;28218;53.342;-6.216;2023-02-19T04:17:26;102609.75;;;9.59;100.00
42591;BME280;28218;53.342;-6.216;2023-02-19T04:19:58;102613.25;;;9.60;100.00
42591;BME280;28218;53.342;-6.216;2023-02-19T04:22:30;102600.19;;;9.58;100.00
42591;BME280;28218;53.342;-6.216;2023-02-19T04:24:58;102603.66;;;9.59;100.00
42591;BME280;28218;53.342;-6.216;2023-02-19T04:27:26;102602.59;;;9.61;100.00
42591;BME280;28218;53.342;-6.216;2023-02-19T04:29:55;102602.59;;;9.61;100.00
42591;BME280;28218;53.342;-6.216;2023-02-19T04:32:23;102600.94;;;9.60;100.00
42591;BME280;28218;53.342;-6.216;2023-02-19T04:34:52;102608.69;;;9.62;100.00
42591;BME280;28218;53.342;-6.216;2023-02-19T04:37:21;102605.09;;;9.63;100.00
42591;BME280;28218;53.342;-6.216;2023-02-19T04:39:49;102596.50;;;9.61;100.00
42591;BME280;28218;53.342;-6.216;2023-02-19T04:42:17;102606.06;;;9.62;100.00
42591;BME280;28218;53.342;-6.216;2023-02-19T04:44:46;102621.72;;;9.63;100.00
42591;BME280;28218;53.342;-6.216;2023-02-19T04:47:14;102636.47;;;9.66;100.00
42591;BME280;28218;53.342;-6.216;2023-02-19T04:49:46;102637.19;;;9.68;100.00
42591;BME280;28218;53.342;-6.216;2023-02-19T04:52:14;102627.38;;;9.70;100.00
42591;BME280;28218;53.342;-6.216;2023-02-19T04:54:44;102622.84;;;9.72;100.00
42591;BME280;28218;53.342;-6.216;2023-02-19T04:57:12;102627.13;;;9.73;100.00
42591;BME280;28218;53.342;-6.216;2023-02-19T04:59:40;102623.44;;;9.76;100.00
42591;BME280;28218;53.342;-6.216;2023-02-19T05:02:08;102633.75;;;9.79;100.00
42591;BME280;28218;53.342;-6.216;2023-02-19T05:04:36;102631.72;;;9.82;100.00
42591;BME280;28218;53.342;-6.216;2023-02-19T05:07:05;102623.59;;;9.85;100.00
42591;BME280;28218;53.342;-6.216;2023-02-19T05:09:33;102624.56;;;9.84;100.00
42591;BME280;28218;53.342;-6.216;2023-02-19T05:12:02;102628.63;;;9.88;100.00
42591;BME280;28218;53.342;-6.216;2023-02-19T05:14:30;102621.44;;;9.90;100.00
42591;BME280;28218;53.342;-6.216;2023-02-19T05:16:59;102608.88;;;9.94;100.00
42591;BME280;28218;53.342;-6.216;2023-02-19T05:19:27;102595.81;;;9.92;100.00
42591;BME280;28218;53.342;-6.216;2023-02-19T05:21:55;102591.41;;;9.93;100.00
42591;BME280;28218;53.342;-6.216;2023-02-19T05:24:23;102593.31;;;9.91;100.00
42591;BME280;28218;53.342;-6.216;2023-02-19T05:26:53;102591.63;;;9.90;100.00
42591;BME280;28218;53.342;-6.216;2023-02-19T05:29:22;102594.41;;;9.88;100.00
42591;BME280;28218;53.342;-6.216;2023-02-19T05:31:51;102605.75;;;9.89;100.00
42591;BME280;28218;53.342;-6.216;2023-02-19T05:34:19;102602.31;;;9.88;100.00
42591;BME280;28218;53.342;-6.216;2023-02-19T05:36:47;102597.97;;;9.87;100.00
42591;BME280;28218;53.342;-6.216;2023-02-19T05:39:15;102597.03;;;9.88;100.00
42591;BME280;28218;53.342;-6.216;2023-02-19T05:41:43;102584.81;;;9.87;100.00
42591;BME280;28218;53.342;-6.216;2023-02-19T05:44:12;102558.59;;;9.86;100.00
42591;BME280;28218;53.342;-6.216;2023-02-19T05:46:41;102552.50;;;9.85;100.00
42591;BME280;28218;53.342;-6.216;2023-02-19T05:49:09;102559.44;;;9.86;100.00
42591;BME280;28218;53.342;-6.216;2023-02-19T05:51:37;102563.88;;;9.86;100.00
42591;BME280;28218;53.342;-6.216;2023-02-19T05:54:06;102570.94;;;9.85;100.00
42591;BME280;28218;53.342;-6.216;2023-02-19T05:56:35;102560.53;;;9.84;100.00
42591;BME280;28218;53.342;-6.216;2023-02-19T05:59:05;102555.13;;;9.85;100.00
42591;BME280;28218;53.342;-6.216;2023-02-19T06:01:34;102567.09;;;9.89;100.00
42591;BME280;28218;53.342;-6.216;2023-02-19T06:04:04;102549.63;;;9.88;100.00
42591;BME280;28218;53.342;-6.216;2023-02-19T06:06:32;102563.03;;;9.85;100.00
42591;BME280;28218;53.342;-6.216;2023-02-19T06:09:00;102541.22;;;9.83;100.00
42591;BME280;28218;53.342;-6.216;2023-02-19T06:11:29;102521.97;;;9.83;100.00
42591;BME280;28218;53.342;-6.216;2023-02-19T06:13:57;102524.59;;;9.83;100.00
42591;BME280;28218;53.342;-6.216;2023-02-19T06:16:26;102533.31;;;9.83;100.00
42591;BME280;28218;53.342;-6.216;2023-02-19T06:18:55;102530.81;;;9.82;100.00
42591;BME280;28218;53.342;-6.216;2023-02-19T06:21:24;102515.88;;;9.82;100.00
42591;BME280;28218;53.342;-6.216;2023-02-19T06:23:53;102518.03;;;9.77;100.00
42591;BME280;28218;53.342;-6.216;2023-02-19T06:26:23;102525.81;;;9.79;100.00
42591;BME280;28218;53.342;-6.216;2023-02-19T06:28:52;102513.72;;;9.76;100.00
42591;BME280;28218;53.342;-6.216;2023-02-19T06:31:22;102496.97;;;9.77;100.00
42591;BME280;28218;53.342;-6.216;2023-02-19T06:33:50;102505.94;;;9.75;100.00
42591;BME280;28218;53.342;-6.216;2023-02-19T06:36:21;102498.28;;;9.71;100.00
42591;BME280;28218;53.342;-6.216;2023-02-19T06:38:51;102507.13;;;9.70;100.00
42591;BME280;28218;53.342;-6.216;2023-02-19T06:41:19;102498.88;;;9.75;100.00
42591;BME280;28218;53.342;-6.216;2023-02-19T06:43:47;102504.38;;;9.72;100.00
42591;BME280;28218;53.342;-6.216;2023-02-19T06:46:16;102498.97;;;9.73;100.00
42591;BME280;28218;53.342;-6.216;2023-02-19T06:48:44;102507.97;;;9.71;100.00
42591;BME280;28218;53.342;-6.216;2023-02-19T06:51:15;102503.66;;;9.70;100.00
42591;BME280;28218;53.342;-6.216;2023-02-19T06:53:44;102503.41;;;9.73;100.00
42591;BME280;28218;53.342;-6.216;2023-02-19T06:56:23;102508.69;;;9.73;100.00
42591;BME280;28218;53.342;-6.216;2023-02-19T06:58:51;102526.41;;;9.71;100.00
42591;BME280;28218;53.342;-6.216;2023-02-19T07:01:20;102522.56;;;9.75;100.00
42591;BME280;28218;53.342;-6.216;2023-02-19T07:03:48;102516.69;;;9.71;100.00
42591;BME280;28218;53.342;-6.216;2023-02-19T07:06:18;102513.84;;;9.75;100.00
42591;BME280;28218;53.342;-6.216;2023-02-19T07:08:47;102507.97;;;9.71;100.00
42591;BME280;28218;53.342;-6.216;2023-02-19T07:11:16;102516.69;;;9.71;100.00
42591;BME280;28218;53.342;-6.216;2023-02-19T07:13:46;102507.84;;;9.72;100.00
42591;BME280;28218;53.342;-6.216;2023-02-19T07:16:14;102524.59;;;9.71;100.00
42591;BME280;28218;53.342;-6.216;2023-02-19T07:18:44;102540.53;;;9.70;100.00
42591;BME280;28218;53.342;-6.216;2023-02-19T07:21:16;102552.84;;;9.69;100.00
42591;BME280;28218;53.342;-6.216;2023-02-19T07:23:45;102544.81;;;9.71;100.00
42591;BME280;28218;53.342;-6.216;2023-02-19T07:26:15;102549.13;;;9.72;100.00
42591;BME280;28218;53.342;-6.216;2023-02-19T07:28:47;102541.22;;;9.72;100.00
42591;BME280;28218;53.342;-6.216;2023-02-19T07:31:16;102545.66;;;9.71;100.00
42591;BME280;28218;53.342;-6.216;2023-02-19T07:33:46;102553.44;;;9.73;100.00
42591;BME280;28218;53.342;-6.216;2023-02-19T07:36:15;102551.63;;;9.73;100.00
42591;BME280;28218;53.342;-6.216;2023-02-19T07:38:44;102552.50;;;9.74;100.00
42591;BME280;28218;53.342;-6.216;2023-02-19T07:41:12;102554.16;;;9.75;100.00
42591;BME280;28218;53.342;-6.216;2023-02-19T07:43:41;102559.44;;;9.75;100.00
42591;BME280;28218;53.342;-6.216;2023-02-19T07:46:12;102558.13;;;9.69;100.00
42591;BME280;28218;53.342;-6.216;2023-02-19T07:48:41;102559.78;;;9.70;100.00
42591;BME280;28218;53.342;-6.216;2023-02-19T07:51:11;102559.88;;;9.69;100.00
42591;BME280;28218;53.342;-6.216;2023-02-19T07:53:40;102569.47;;;9.70;100.00
42591;BME280;28218;53.342;-6.216;2023-02-19T07:56:10;102575.56;;;9.70;100.00
42591;BME280;28218;53.342;-6.216;2023-02-19T07:58:39;102578.31;;;9.69;100.00
42591;BME280;28218;53.342;-6.216;2023-02-19T08:01:11;102572.34;;;9.67;100.00
42591;BME280;28218;53.342;-6.216;2023-02-19T08:03:41;102576.75;;;9.66;100.00
42591;BME280;28218;53.342;-6.216;2023-02-19T08:06:09;102573.78;;;9.71;100.00
42591;BME280;28218;53.342;-6.216;2023-02-19T08:08:38;102572.94;;;9.70;100.00
42591;BME280;28218;53.342;-6.216;2023-02-19T08:11:06;102574.75;;;9.70;100.00
42591;BME280;28218;53.342;-6.216;2023-02-19T08:13:52;102574.75;;;9.70;100.00
42591;BME280;28218;53.342;-6.216;2023-02-19T08:16:22;102569.34;;;9.71;100.00
42591;BME280;28218;53.342;-6.216;2023-02-19T08:19:08;102571.03;;;9.72;100.00
42591;BME280;28218;53.342;-6.216;2023-02-19T08:21:36;102579.53;;;9.76;100.00
42591;BME280;28218;53.342;-6.216;2023-02-19T08:24:04;102573.31;;;9.77;100.00
42591;BME280;28218;53.342;-6.216;2023-02-19T08:26:33;102578.34;;;9.80;100.00
42591;BME280;28218;53.342;-6.216;2023-02-19T08:29:01;102574.97;;;9.78;100.00
42591;BME280;28218;53.342;-6.216;2023-02-19T08:31:32;102589.00;;;9.79;100.00
42591;BME280;28218;53.342;-6.216;2023-02-19T08:34:01;102575.84;;;9.79;100.00
42591;BME280;28218;53.342;-6.216;2023-02-19T08:36:29;102579.78;;;9.84;100.00
42591;BME280;28218;53.342;-6.216;2023-02-19T08:38:57;102579.88;;;9.83;100.00
42591;BME280;28218;53.342;-6.216;2023-02-19T08:41:25;102580.50;;;9.86;100.00
42591;BME280;28218;53.342;-6.216;2023-02-19T08:43:56;102574.16;;;9.89;100.00
42591;BME280;28218;53.342;-6.216;2023-02-19T08:46:25;102569.97;;;9.86;100.00
42591;BME280;28218;53.342;-6.216;2023-02-19T08:48:54;102557.53;;;9.88;100.00
42591;BME280;28218;53.342;-6.216;2023-02-19T08:51:22;102549.13;;;9.83;100.00
42591;BME280;28218;53.342;-6.216;2023-02-19T08:53:51;102555.13;;;9.85;100.00
42591;BME280;28218;53.342;-6.216;2023-02-19T08:56:19;102559.44;;;9.86;100.00
42591;BME280;28218;53.342;-6.216;2023-02-19T08:58:47;102545.44;;;9.86;100.00
42591;BME280;28218;53.342;-6.216;2023-02-19T09:01:16;102533.84;;;9.88;100.00
42591;BME280;28218;53.342;-6.216;2023-02-19T09:03:45;102535.59;;;9.88;100.00
42591;BME280;28218;53.342;-6.216;2023-02-19T09:06:16;102536.47;;;9.88;100.00
42591;BME280;28218;53.342;-6.216;2023-02-19T09:08:45;102544.25;;;9.90;100.00
42591;BME280;28218;53.342;-6.216;2023-02-19T09:11:14;102532.63;;;9.92;100.00
42591;BME280;28218;53.342;-6.216;2023-02-19T09:13:42;102548.06;;;9.97;100.00
42591;BME280;28218;53.342;-6.216;2023-02-19T09:16:10;102553.31;;;9.97;100.00
42591;BME280;28218;53.342;-6.216;2023-02-19T09:18:38;102555.13;;;9.96;100.00
42591;BME280;28218;53.342;-6.216;2023-02-19T09:21:07;102554.66;;;10.03;100.00
42591;BME280;28218;53.342;-6.216;2023-02-19T09:23:37;102551.28;;;10.01;100.00
42591;BME280;28218;53.342;-6.216;2023-02-19T09:26:06;102558.13;;;10.03;100.00
42591;BME280;28218;53.342;-6.216;2023-02-19T09:28:36;102563.28;;;10.05;100.00
42591;BME280;28218;53.342;-6.216;2023-02-19T09:31:09;102557.78;;;10.08;100.00
42591;BME280;28218;53.342;-6.216;2023-02-19T09:33:41;102561.59;;;10.15;100.00
42591;BME280;28218;53.342;-6.216;2023-02-19T09:36:09;102556.78;;;10.20;100.00
42591;BME280;28218;53.342;-6.216;2023-02-19T09:38:39;102561.38;;;10.29;100.00
42591;BME280;28218;53.342;-6.216;2023-02-19T09:41:12;102570.00;;;10.42;100.00
42591;BME280;28218;53.342;-6.216;2023-02-19T09:43:41;102563.50;;;10.46;100.00
42591;BME280;28218;53.342;-6.216;2023-02-19T09:46:20;102565.41;;;10.56;100.00
42591;BME280;28218;53.342;-6.216;2023-02-19T09:48:50;102567.81;;;10.59;100.00
42591;BME280;28218;53.342;-6.216;2023-02-19T09:51:20;102585.31;;;10.60;100.00
42591;BME280;28218;53.342;-6.216;2023-02-19T09:53:51;102587.81;;;10.61;100.00
42591;BME280;28218;53.342;-6.216;2023-02-19T09:56:20;102586.84;;;10.62;100.00
42591;BME280;28218;53.342;-6.216;2023-02-19T09:58:51;102585.63;;;10.66;100.00
42591;BME280;28218;53.342;-6.216;2023-02-19T10:01:22;102594.84;;;10.72;100.00
42591;BME280;28218;53.342;-6.216;2023-02-19T10:03:54;102605.41;;;10.72;100.00
42591;BME280;28218;53.342;-6.216;2023-02-19T10:06:25;102583.38;;;10.73;100.00
42591;BME280;28218;53.342;-6.216;2023-02-19T10:09:04;102581.28;;;10.77;100.00
42591;BME280;28218;53.342;-6.216;2023-02-19T10:11:39;102590.78;;;10.79;100.00
42591;BME280;28218;53.342;-6.216;2023-02-19T10:14:12;102586.09;;;10.83;100.00
42591;BME280;28218;53.342;-6.216;2023-02-19T10:16:44;102600.22;;;10.82;100.00
42591;BME280;28218;53.342;-6.216;2023-02-19T10:19:13;102594.94;;;10.82;100.00
42591;BME280;28218;53.342;-6.216;2023-02-19T10:21:42;102595.69;;;10.72;100.00
42591;BME280;28218;53.342;-6.216;2023-02-19T10:24:17;102599.41;;;10.70;100.00
42591;BME280;28218;53.342;-6.216;2023-02-19T10:26:48;102583.38;;;10.73;100.00
42591;BME280;28218;53.342;-6.216;2023-02-19T10:29:17;102588.50;;;10.74;100.00
42591;BME280;28218;53.342;-6.216;2023-02-19T10:31:45;102590.19;;;10.75;100.00
42591;BME280;28218;53.342;-6.216;2023-02-19T10:34:17;102593.66;;;10.76;100.00
42591;BME280;28218;53.342;-6.216;2023-02-19T10:36:49;102592.44;;;10.80;100.00
42591;BME280;28218;53.342;-6.216;2023-02-19T10:39:41;102596.19;;;10.78;100.00
42591;BME280;28218;53.342;-6.216;2023-02-19T10:42:17;102586.56;;;10.77;100.00
42591;BME280;28218;53.342;-6.216;2023-02-19T10:44:49;102594.84;;;10.83;100.00
42591;BME280;28218;53.342;-6.216;2023-02-19T10:47:21;102599.28;;;10.83;100.00
42591;BME280;28218;53.342;-6.216;2023-02-19T10:49:50;102592.78;;;10.87;100.00
42591;BME280;28218;53.342;-6.216;2023-02-19T10:52:22;102600.94;;;10.84;100.00
42591;BME280;28218;53.342;-6.216;2023-02-19T10:54:56;102602.63;;;10.85;100.00
42591;BME280;28218;53.342;-6.216;2023-02-19T10:57:27;102608.03;;;10.83;100.00
42591;BME280;28218;53.342;-6.216;2023-02-19T11:00:16;102600.56;;;10.88;100.00
42591;BME280;28218;53.342;-6.216;2023-02-19T11:02:48;102589.06;;;10.89;100.00
42591;BME280;28218;53.342;-6.216;2023-02-19T11:05:18;102598.41;;;10.93;100.00
42591;BME280;28218;53.342;-6.216;2023-02-19T11:07:48;102598.41;;;10.93;100.00
42591;BME280;28218;53.342;-6.216;2023-02-19T11:10:25;102601.03;;;10.93;100.00
42591;BME280;28218;53.342;-6.216;2023-02-19T11:12:57;102603.44;;;10.96;100.00
42591;BME280;28218;53.342;-6.216;2023-02-19T11:15:28;102604.59;;;11.04;100.00
42591;BME280;28218;53.342;-6.216;2023-02-19T11:18:06;102599.53;;;11.12;100.00
42591;BME280;28218;53.342;-6.216;2023-02-19T11:20:38;102594.72;;;11.17;100.00
42591;BME280;28218;53.342;-6.216;2023-02-19T11:23:15;102597.69;;;11.23;100.00
42591;BME280;28218;53.342;-6.216;2023-02-19T11:25:48;102593.69;;;11.29;100.00
42591;BME280;28218;53.342;-6.216;2023-02-19T11:28:29;102590.34;;;11.27;100.00
42591;BME280;28218;53.342;-6.216;2023-02-19T11:31:21;102577.41;;;11.24;100.00
42591;BME280;28218;53.342;-6.216;2023-02-19T11:33:55;102576.66;;;11.33;100.00
42591;BME280;28218;53.342;-6.216;2023-02-19T11:36:26;102582.97;;;11.42;100.00
42591;BME280;28218;53.342;-6.216;2023-02-19T11:38:57;102568.94;;;11.41;100.00
42591;BME280;28218;53.342;-6.216;2023-02-19T11:41:51;102580.91;;;11.45;100.00
42591;BME280;28218;53.342;-6.216;2023-02-19T11:44:31;102583.03;;;11.51;100.00
42591;BME280;28218;53.342;-6.216;2023-02-19T11:47:38;102574.63;;;11.58;100.00
42591;BME280;28218;53.342;-6.216;2023-02-19T11:50:20;102575.75;;;11.65;100.00
42591;BME280;28218;53.342;-6.216;2023-02-19T11:52:57;102565.91;;;11.67;100.00
42591;BME280;28218;53.342;-6.216;2023-02-19T11:55:40;102571.31;;;11.65;100.00
42591;BME280;28218;53.342;-6.216;2023-02-19T11:58:47;102570.63;;;11.63;100.00
42591;BME280;28218;53.342;-6.216;2023-02-19T12:01:22;102575.94;;;11.73;100.00
42591;BME280;28218;53.342;-6.216;2023-02-19T12:04:14;102567.31;;;11.71;100.00
42591;BME280;28218;53.342;-6.216;2023-02-19T12:06:52;102570.97;;;11.80;100.00
42591;BME280;28218;53.342;-6.216;2023-02-19T12:09:32;102557.41;;;11.84;100.00
42591;BME280;28218;53.342;-6.216;2023-02-19T12:12:13;102547.03;;;11.92;100.00
42591;BME280;28218;53.342;-6.216;2023-02-19T12:14:59;102534.69;;;12.02;100.00
42591;BME280;28218;53.342;-6.216;2023-02-19T12:18:00;102547.28;;;12.20;100.00
42591;BME280;28218;53.342;-6.216;2023-02-19T12:20:39;102528.50;;;12.33;100.00
42591;BME280;28218;53.342;-6.216;2023-02-19T12:26:18;102529.63;;;12.30;100.00
42591;BME280;28218;53.342;-6.216;2023-02-19T12:28:58;102526.72;;;12.33;100.00
42591;BME280;28218;53.342;-6.216;2023-02-19T12:31:55;102516.03;;;12.54;100.00
42591;BME280;28218;53.342;-6.216;2023-02-19T12:34:46;102508.13;;;12.73;100.00
42591;BME280;28218;53.342;-6.216;2023-02-19T12:37:28;102499.91;;;12.76;100.00
42591;BME280;28218;53.342;-6.216;2023-02-19T12:40:10;102489.91;;;12.80;100.00
42591;BME280;28218;53.342;-6.216;2023-02-19T12:42:51;102491.56;;;12.81;100.00
42591;BME280;28218;53.342;-6.216;2023-02-19T12:45:28;102483.47;;;12.73;100.00
42591;BME280;28218;53.342;-6.216;2023-02-19T12:48:04;102475.56;;;12.63;100.00
42591;BME280;28218;53.342;-6.216;2023-02-19T12:50:34;102465.25;;;12.60;100.00
42591;BME280;28218;53.342;-6.216;2023-02-19T12:53:06;102461.91;;;12.68;100.00
42591;BME280;28218;53.342;-6.216;2023-02-19T12:55:43;102446.16;;;12.86;100.00
42591;BME280;28218;53.342;-6.216;2023-02-19T12:58:29;102449.22;;;13.00;100.00
42591;BME280;28218;53.342;-6.216;2023-02-19T13:00:59;102440.44;;;13.10;100.00
42591;BME280;28218;53.342;-6.216;2023-02-19T13:03:31;102446.13;;;13.15;100.00
42591;BME280;28218;53.342;-6.216;2023-02-19T13:06:05;102434.00;;;13.22;100.00
42591;BME280;28218;53.342;-6.216;2023-02-19T13:08:43;102433.44;;;13.28;100.00
42591;BME280;28218;53.342;-6.216;2023-02-19T13:11:35;102432.97;;;13.42;100.00